1899 NOT_NAMED (1899040S13052)


IBTrACS version v04r00. Visit IBTrACS website for data access.
Please direct all questions to the IBTrACS Q and A forum

Storm track - Intensity - Wind Radii - Intensity Data - Source Data - All data

Summary Information

Storm ID 1899040S13052
Start Feb 9 00Z
Landfall Feb 10 00Z, Feb 12 06Z
End Feb 17 00Z
ATCF IDs
Track status Best track data.

Storm track plot

Map of storm track

Intensity plots

No Intensity information for this storm


Radial wind information

No radial wind information for this storm


Position and Intensity Table

BASIN ISO_TIME_________ NATURE LAT LON
degrees north degrees east
SI 1899-02-09 00:00:00 TS -12.70 52.20
SI 03:00:00 TS -12.80 51.90
SI 06:00:00 TS -12.90 51.60
SI 09:00:00 TS -12.99 51.29
SI 12:00:00 TS -13.10 51.00
SI 15:00:00 TS -13.25 50.75
SI 18:00:00 TS -13.40 50.50
SI 21:00:00 TS -13.51 50.21
SI 1899-02-10 00:00:00 TS -13.60 49.90
SI 03:00:00 TS -13.69 49.60
SI 06:00:00 TS -13.80 49.30
SI 09:00:00 TS -13.95 48.99
SI 12:00:00 TS -14.10 48.70
SI 15:00:00 TS -14.21 48.43
SI 18:00:00 TS -14.30 48.20
SI 21:00:00 TS -14.40 47.99
SI 1899-02-11 00:00:00 TS -14.50 47.80
SI 03:00:00 TS -14.59 47.60
SI 06:00:00 TS -14.70 47.40
SI 09:00:00 TS -14.84 47.20
SI 12:00:00 TS -15.00 47.00
SI 15:00:00 TS -15.15 46.79
SI 18:00:00 TS -15.30 46.60
SI 21:00:00 TS -15.45 46.45
SI 1899-02-12 00:00:00 TS -15.60 46.30
SI 03:00:00 TS -15.74 46.11
SI 06:00:00 TS -15.90 45.90
SI 09:00:00 TS -16.09 45.69
SI 12:00:00 TS -16.30 45.50
SI 15:00:00 TS -16.49 45.33
SI 18:00:00 TS -16.70 45.20
SI 21:00:00 TS -16.93 45.13
SI 1899-02-13 00:00:00 TS -17.20 45.10
SI 03:00:00 TS -17.54 45.07
SI 06:00:00 TS -17.90 45.10
SI 09:00:00 TS -18.23 45.23
SI 12:00:00 TS -18.50 45.40
SI 15:00:00 TS -18.67 45.50
SI 18:00:00 TS -18.80 45.60
SI 21:00:00 TS -18.96 45.75
SI 1899-02-14 00:00:00 TS -19.10 45.90
SI 03:00:00 TS -19.21 46.01
SI 06:00:00 TS -19.30 46.10
SI 09:00:00 TS -19.40 46.20
SI 12:00:00 TS -19.50 46.30
SI 15:00:00 TS -19.60 46.39
SI 18:00:00 TS -19.70 46.50
SI 21:00:00 TS -19.80 46.64
SI 1899-02-15 00:00:00 TS -19.90 46.80
SI 03:00:00 TS -20.00 46.96
SI 06:00:00 TS -20.10 47.10
SI 09:00:00 TS -20.20 47.21
SI 12:00:00 TS -20.30 47.30
SI 15:00:00 TS -20.41 47.39
SI 18:00:00 TS -20.50 47.50
SI 21:00:00 TS -20.55 47.64
SI 1899-02-16 00:00:00 TS -20.60 47.80
SI 03:00:00 TS -20.68 47.95
SI 06:00:00 TS -20.80 48.10
SI 09:00:00 TS -20.95 48.25
SI 12:00:00 TS -21.10 48.40
SI 15:00:00 TS -21.21 48.54
SI 18:00:00 TS -21.30 48.70
SI 21:00:00 TS -21.40 48.89
SI 1899-02-17 00:00:00 TS -21.50 49.10

Source Information

Agency Information
USA
TOKYO
CMA
HKO
NEWDELHI
REUNION
BOM
NADI
WELLINGTON
DS824 s_hem.dat:102:NOT NAMED
TD9636
TD9635
NEUMANN
MLC

All available IBTrACS Data

SEASON BASIN SUBBASIN ISO_TIME_________ NATURE LAT LON DIST2LAND LANDFALL IFLAG USA SSHS DS824 LAT DS824 LON DS824 STAGE STORM SPEED STORM DIR
Year degrees north degrees east km km 1 degrees north degrees east kts degrees
1899 SI MM 1899-02-09 00:00:00 TS -12.70 52.20 251 216 _________O____ -1 -12.70 52.20 TC 6 251
1899 SI MM 03:00:00 TS -12.80 51.90 216 182 _________P____ -1 -12.80 51.90 TC 6 251
1899 SI MM 06:00:00 TS -12.90 51.60 182 147 _________O____ -1 -12.90 51.60 TC 6 252
1899 SI MM 09:00:00 TS -12.99 51.29 147 113 _________P____ -1 -12.99 51.29 TC 6 251
1899 SI MM 12:00:00 TS -13.10 51.00 113 89 _________O____ -1 -13.10 51.00 TC 6 244
1899 SI MM 15:00:00 TS -13.25 50.75 89 54 _________P____ -1 -13.25 50.75 TC 6 238
1899 SI MM 18:00:00 TS -13.40 50.50 54 21 _________O____ -1 -13.40 50.50 TC 6 244
1899 SI MM 21:00:00 TS -13.51 50.21 21 0 _________P____ -1 -13.51 50.21 TC 6 251
1899 SI MM 1899-02-10 00:00:00 TS -13.60 49.90 0 0 _________O____ -1 -13.60 49.90 TC 6 253
1899 SI MM 03:00:00 TS -13.69 49.60 0 0 _________P____ -1 -13.69 49.60 TC 6 251
1899 SI MM 06:00:00 TS -13.80 49.30 0 0 _________O____ -1 -13.80 49.30 TC 6 246
1899 SI MM 09:00:00 TS -13.95 48.99 0 0 _________P____ -1 -13.95 48.99 TC 7 243
1899 SI MM 12:00:00 TS -14.10 48.70 0 0 _________O____ -1 -14.10 48.70 TC 6 245
1899 SI MM 15:00:00 TS -14.21 48.43 0 0 _________P____ -1 -14.21 48.43 TC 5 248
1899 SI MM 18:00:00 TS -14.30 48.20 0 0 _________O____ -1 -14.30 48.20 TC 5 246
1899 SI MM 21:00:00 TS -14.40 47.99 0 0 _________P____ -1 -14.40 47.99 TC 4 243
1899 SI MM 1899-02-11 00:00:00 TS -14.50 47.80 0 0 _________O____ -1 -14.50 47.80 TC 4 243
1899 SI MM 03:00:00 TS -14.59 47.60 21 11 _________P____ -1 -14.59 47.60 TC 4 243
1899 SI MM 06:00:00 TS -14.70 47.40 11 10 _________O____ -1 -14.70 47.40 TC 5 237
1899 SI MM 09:00:00 TS -14.84 47.20 15 10 _________P____ -1 -14.84 47.20 TC 5 232
1899 SI MM 12:00:00 TS -15.00 47.00 22 15 _________O____ -1 -15.00 47.00 TC 5 232
1899 SI MM 15:00:00 TS -15.15 46.79 22 10 _________P____ -1 -15.15 46.79 TC 5 232
1899 SI MM 18:00:00 TS -15.30 46.60 11 10 _________O____ -1 -15.30 46.60 TC 4 228
1899 SI MM 21:00:00 TS -15.45 46.45 21 0 _________P____ -1 -15.45 46.45 TC 4 224
1899 SI MM 1899-02-12 00:00:00 TS -15.60 46.30 10 10 _________O____ -1 -15.60 46.30 TC 4 229
1899 SI MM 03:00:00 TS -15.74 46.11 11 0 _________P____ -1 -15.74 46.11 TC 5 232
1899 SI MM 06:00:00 TS -15.90 45.90 0 0 _________O____ -1 -15.90 45.90 TC 5 229
1899 SI MM 09:00:00 TS -16.09 45.69 0 0 _________P____ -1 -16.09 45.69 TC 6 224
1899 SI MM 12:00:00 TS -16.30 45.50 0 0 _________O____ -1 -16.30 45.50 TC 5 221
1899 SI MM 15:00:00 TS -16.49 45.33 0 0 _________P____ -1 -16.49 45.33 TC 5 216
1899 SI MM 18:00:00 TS -16.70 45.20 0 0 _________O____ -1 -16.70 45.20 TC 5 204
1899 SI MM 21:00:00 TS -16.93 45.13 0 0 _________P____ -1 -16.93 45.13 TC 5 191
1899 SI MM 1899-02-13 00:00:00 TS -17.20 45.10 0 0 _________O____ -1 -17.20 45.10 TC 6 186
1899 SI MM 03:00:00 TS -17.54 45.07 0 0 _________P____ -1 -17.54 45.07 TC 7 0
1899 SI MM 06:00:00 TS -17.90 45.10 0 0 _________O____ -1 -17.90 45.10 TC 7 167
1899 SI MM 09:00:00 TS -18.23 45.23 0 0 _________P____ -1 -18.23 45.23 TC 7 155
1899 SI MM 12:00:00 TS -18.50 45.40 0 0 _________O____ -1 -18.50 45.40 TC 5 151
1899 SI MM 15:00:00 TS -18.67 45.50 0 0 _________P____ -1 -18.67 45.50 TC 4 148
1899 SI MM 18:00:00 TS -18.80 45.60 0 0 _________O____ -1 -18.80 45.60 TC 4 140
1899 SI MM 21:00:00 TS -18.96 45.75 0 0 _________P____ -1 -18.96 45.75 TC 4 137
1899 SI MM 1899-02-14 00:00:00 TS -19.10 45.90 0 0 _________O____ -1 -19.10 45.90 TC 4 136
1899 SI MM 03:00:00 TS -19.21 46.01 0 0 _________P____ -1 -19.21 46.01 TC 3 136
1899 SI MM 06:00:00 TS -19.30 46.10 0 0 _________O____ -1 -19.30 46.10 TC 3 136
1899 SI MM 09:00:00 TS -19.40 46.20 0 0 _________P____ -1 -19.40 46.20 TC 3 136
1899 SI MM 12:00:00 TS -19.50 46.30 0 0 _________O____ -1 -19.50 46.30 TC 3 138
1899 SI MM 15:00:00 TS -19.60 46.39 0 0 _________P____ -1 -19.60 46.39 TC 3 136
1899 SI MM 18:00:00 TS -19.70 46.50 0 0 _________O____ -1 -19.70 46.50 TC 3 130
1899 SI MM 21:00:00 TS -19.80 46.64 0 0 _________P____ -1 -19.80 46.64 TC 3 125
1899 SI MM 1899-02-15 00:00:00 TS -19.90 46.80 0 0 _________O____ -1 -19.90 46.80 TC 4 124
1899 SI MM 03:00:00 TS -20.00 46.96 0 0 _________P____ -1 -20.00 46.96 TC 3 125
1899 SI MM 06:00:00 TS -20.10 47.10 0 0 _________O____ -1 -20.10 47.10 TC 3 130
1899 SI MM 09:00:00 TS -20.20 47.21 0 0 _________P____ -1 -20.20 47.21 TC 3 136
1899 SI MM 12:00:00 TS -20.30 47.30 0 0 _________O____ -1 -20.30 47.30 TC 3 140
1899 SI MM 15:00:00 TS -20.41 47.39 0 0 _________P____ -1 -20.41 47.39 TC 3 137
1899 SI MM 18:00:00 TS -20.50 47.50 0 0 _________O____ -1 -20.50 47.50 TC 3 121
1899 SI MM 21:00:00 TS -20.55 47.64 0 0 _________P____ -1 -20.55 47.64 TC 3 110
1899 SI MM 1899-02-16 00:00:00 TS -20.60 47.80 0 0 _________O____ -1 -20.60 47.80 TC 3 115
1899 SI MM 03:00:00 TS -20.68 47.95 0 0 _________P____ -1 -20.68 47.95 TC 3 125
1899 SI MM 06:00:00 TS -20.80 48.10 0 0 _________O____ -1 -20.80 48.10 TC 4 133
1899 SI MM 09:00:00 TS -20.95 48.25 0 0 _________P____ -1 -20.95 48.25 TC 4 137
1899 SI MM 12:00:00 TS -21.10 48.40 10 10 _________O____ -1 -21.10 48.40 TC 4 133
1899 SI MM 15:00:00 TS -21.21 48.54 20 20 _________P____ -1 -21.21 48.54 TC 3 125
1899 SI MM 18:00:00 TS -21.30 48.70 41 41 _________O____ -1 -21.30 48.70 TC 4 120
1899 SI MM 21:00:00 TS -21.40 48.89 62 62 _________P____ -1 -21.40 48.89 TC 4 118
1899 SI MM 1899-02-17 00:00:00 TS -21.50 49.10 83 _________O____ -1 -21.50 49.10 TC 4 118